sensor_id;sensor_type;location;lat;lon;timestamp;P1;durP1;ratioP1;P2;durP2;ratioP2
23378;SDS011;11862;46.070;13.222;2022-11-20T00:01:30;1.38;;;0.80;;
23378;SDS011;11862;46.070;13.222;2022-11-20T00:03:57;1.10;;;0.70;;
23378;SDS011;11862;46.070;13.222;2022-11-20T00:06:24;1.08;;;0.90;;
23378;SDS011;11862;46.070;13.222;2022-11-20T00:08:52;1.45;;;0.98;;
23378;SDS011;11862;46.070;13.222;2022-11-20T00:11:21;1.00;;;0.80;;
23378;SDS011;11862;46.070;13.222;2022-11-20T00:13:49;1.20;;;1.00;;
23378;SDS011;11862;46.070;13.222;2022-11-20T00:16:17;0.70;;;0.70;;
23378;SDS011;11862;46.070;13.222;2022-11-20T00:18:45;0.70;;;0.70;;
23378;SDS011;11862;46.070;13.222;2022-11-20T00:21:16;0.93;;;0.70;;
23378;SDS011;11862;46.070;13.222;2022-11-20T00:23:46;0.70;;;0.63;;
23378;SDS011;11862;46.070;13.222;2022-11-20T00:26:14;1.05;;;0.95;;
23378;SDS011;11862;46.070;13.222;2022-11-20T00:28:42;1.02;;;0.77;;
23378;SDS011;11862;46.070;13.222;2022-11-20T00:31:13;1.00;;;0.80;;
23378;SDS011;11862;46.070;13.222;2022-11-20T00:33:40;0.70;;;0.60;;
23378;SDS011;11862;46.070;13.222;2022-11-20T00:36:12;1.85;;;0.63;;
23378;SDS011;11862;46.070;13.222;2022-11-20T00:38:39;1.00;;;0.70;;
23378;SDS011;11862;46.070;13.222;2022-11-20T00:41:09;0.63;;;0.60;;
23378;SDS011;11862;46.070;13.222;2022-11-20T00:43:37;0.70;;;0.70;;
23378;SDS011;11862;46.070;13.222;2022-11-20T00:46:08;1.00;;;0.90;;
23378;SDS011;11862;46.070;13.222;2022-11-20T00:48:37;1.60;;;0.73;;
23378;SDS011;11862;46.070;13.222;2022-11-20T00:51:02;1.27;;;0.70;;
23378;SDS011;11862;46.070;13.222;2022-11-20T00:53:30;1.08;;;0.70;;
23378;SDS011;11862;46.070;13.222;2022-11-20T00:56:00;1.02;;;0.70;;
23378;SDS011;11862;46.070;13.222;2022-11-20T00:58:32;0.60;;;0.57;;
23378;SDS011;11862;46.070;13.222;2022-11-20T01:01:02;3.45;;;0.40;;
23378;SDS011;11862;46.070;13.222;2022-11-20T01:03:36;0.75;;;0.75;;
23378;SDS011;11862;46.070;13.222;2022-11-20T01:06:05;1.23;;;0.70;;
23378;SDS011;11862;46.070;13.222;2022-11-20T01:08:34;1.88;;;1.00;;
23378;SDS011;11862;46.070;13.222;2022-11-20T01:11:01;0.60;;;0.60;;
23378;SDS011;11862;46.070;13.222;2022-11-20T01:13:32;0.65;;;0.47;;
23378;SDS011;11862;46.070;13.222;2022-11-20T01:16:16;0.90;;;0.60;;
23378;SDS011;11862;46.070;13.222;2022-11-20T01:18:44;0.55;;;0.50;;
23378;SDS011;11862;46.070;13.222;2022-11-20T01:21:13;1.00;;;0.68;;
23378;SDS011;11862;46.070;13.222;2022-11-20T01:23:41;1.25;;;0.80;;
23378;SDS011;11862;46.070;13.222;2022-11-20T01:26:09;1.25;;;0.80;;
23378;SDS011;11862;46.070;13.222;2022-11-20T01:28:36;1.27;;;0.90;;
23378;SDS011;11862;46.070;13.222;2022-11-20T01:31:12;1.92;;;0.90;;
23378;SDS011;11862;46.070;13.222;2022-11-20T01:33:43;0.60;;;0.60;;
23378;SDS011;11862;46.070;13.222;2022-11-20T01:36:09;0.60;;;0.55;;
23378;SDS011;11862;46.070;13.222;2022-11-20T01:38:36;0.75;;;0.73;;
23378;SDS011;11862;46.070;13.222;2022-11-20T01:41:02;1.35;;;0.93;;
23378;SDS011;11862;46.070;13.222;2022-11-20T01:43:29;0.65;;;0.60;;
23378;SDS011;11862;46.070;13.222;2022-11-20T01:48:43;0.75;;;0.70;;
23378;SDS011;11862;46.070;13.222;2022-11-20T01:51:19;1.58;;;0.60;;
23378;SDS011;11862;46.070;13.222;2022-11-20T01:53:48;1.15;;;0.88;;
23378;SDS011;11862;46.070;13.222;2022-11-20T01:56:19;0.98;;;0.80;;
23378;SDS011;11862;46.070;13.222;2022-11-20T01:58:47;0.93;;;0.60;;
23378;SDS011;11862;46.070;13.222;2022-11-20T02:03:42;1.73;;;0.77;;
23378;SDS011;11862;46.070;13.222;2022-11-20T02:06:19;0.85;;;0.75;;
23378;SDS011;11862;46.070;13.222;2022-11-20T02:08:53;0.95;;;0.75;;
23378;SDS011;11862;46.070;13.222;2022-11-20T02:11:20;2.65;;;1.35;;
23378;SDS011;11862;46.070;13.222;2022-11-20T02:13:46;1.50;;;0.90;;
23378;SDS011;11862;46.070;13.222;2022-11-20T02:16:18;1.45;;;0.80;;
23378;SDS011;11862;46.070;13.222;2022-11-20T02:18:51;1.55;;;0.95;;
23378;SDS011;11862;46.070;13.222;2022-11-20T02:21:27;2.78;;;0.90;;
23378;SDS011;11862;46.070;13.222;2022-11-20T02:26:27;0.88;;;0.70;;
23378;SDS011;11862;46.070;13.222;2022-11-20T02:28:57;1.20;;;0.77;;
23378;SDS011;11862;46.070;13.222;2022-11-20T02:31:25;0.90;;;0.68;;
23378;SDS011;11862;46.070;13.222;2022-11-20T02:33:57;1.13;;;0.77;;
23378;SDS011;11862;46.070;13.222;2022-11-20T02:36:26;0.90;;;0.88;;
23378;SDS011;11862;46.070;13.222;2022-11-20T02:38:53;0.80;;;0.80;;
23378;SDS011;11862;46.070;13.222;2022-11-20T02:41:19;1.13;;;0.60;;
23378;SDS011;11862;46.070;13.222;2022-11-20T02:43:45;1.15;;;0.80;;
23378;SDS011;11862;46.070;13.222;2022-11-20T02:46:11;1.13;;;0.77;;
23378;SDS011;11862;46.070;13.222;2022-11-20T02:48:37;1.27;;;0.90;;
23378;SDS011;11862;46.070;13.222;2022-11-20T02:51:05;1.10;;;0.70;;
23378;SDS011;11862;46.070;13.222;2022-11-20T02:53:31;0.55;;;0.55;;
23378;SDS011;11862;46.070;13.222;2022-11-20T02:55:57;1.38;;;0.63;;
23378;SDS011;11862;46.070;13.222;2022-11-20T02:58:23;1.83;;;0.90;;
23378;SDS011;11862;46.070;13.222;2022-11-20T03:00:49;1.30;;;0.80;;
23378;SDS011;11862;46.070;13.222;2022-11-20T03:03:14;1.48;;;1.00;;
23378;SDS011;11862;46.070;13.222;2022-11-20T03:05:40;3.28;;;1.27;;
23378;SDS011;11862;46.070;13.222;2022-11-20T03:08:06;0.85;;;0.80;;
23378;SDS011;11862;46.070;13.222;2022-11-20T03:10:35;0.60;;;0.60;;
23378;SDS011;11862;46.070;13.222;2022-11-20T03:13:01;0.70;;;0.60;;
23378;SDS011;11862;46.070;13.222;2022-11-20T03:15:27;0.57;;;0.57;;
23378;SDS011;11862;46.070;13.222;2022-11-20T03:17:53;1.65;;;0.60;;
23378;SDS011;11862;46.070;13.222;2022-11-20T03:20:20;0.82;;;0.63;;
23378;SDS011;11862;46.070;13.222;2022-11-20T03:22:46;0.90;;;0.73;;
23378;SDS011;11862;46.070;13.222;2022-11-20T03:25:12;0.70;;;0.70;;
23378;SDS011;11862;46.070;13.222;2022-11-20T03:27:37;0.70;;;0.70;;
23378;SDS011;11862;46.070;13.222;2022-11-20T03:30:03;0.75;;;0.63;;
23378;SDS011;11862;46.070;13.222;2022-11-20T03:32:30;1.30;;;0.85;;
23378;SDS011;11862;46.070;13.222;2022-11-20T03:34:56;1.00;;;0.90;;
23378;SDS011;11862;46.070;13.222;2022-11-20T03:37:22;1.88;;;1.38;;
23378;SDS011;11862;46.070;13.222;2022-11-20T03:39:48;2.33;;;1.55;;
23378;SDS011;11862;46.070;13.222;2022-11-20T03:42:13;2.45;;;1.60;;
23378;SDS011;11862;46.070;13.222;2022-11-20T03:44:59;2.30;;;2.10;;
23378;SDS011;11862;46.070;13.222;2022-11-20T03:47:25;2.05;;;1.85;;
23378;SDS011;11862;46.070;13.222;2022-11-20T03:49:51;3.38;;;1.85;;
23378;SDS011;11862;46.070;13.222;2022-11-20T03:52:17;2.53;;;2.30;;
23378;SDS011;11862;46.070;13.222;2022-11-20T03:54:42;2.15;;;1.95;;
23378;SDS011;11862;46.070;13.222;2022-11-20T03:57:08;3.55;;;2.00;;
23378;SDS011;11862;46.070;13.222;2022-11-20T03:59:34;3.10;;;2.20;;
23378;SDS011;11862;46.070;13.222;2022-11-20T04:02:00;3.80;;;2.50;;
23378;SDS011;11862;46.070;13.222;2022-11-20T04:04:25;3.30;;;2.10;;
23378;SDS011;11862;46.070;13.222;2022-11-20T04:06:51;3.30;;;2.17;;
23378;SDS011;11862;46.070;13.222;2022-11-20T04:09:17;2.60;;;2.15;;
23378;SDS011;11862;46.070;13.222;2022-11-20T04:11:43;3.25;;;2.47;;
23378;SDS011;11862;46.070;13.222;2022-11-20T04:14:13;3.28;;;2.20;;
23378;SDS011;11862;46.070;13.222;2022-11-20T04:16:40;2.75;;;2.05;;
23378;SDS011;11862;46.070;13.222;2022-11-20T04:19:08;4.00;;;3.08;;
23378;SDS011;11862;46.070;13.222;2022-11-20T04:21:36;3.08;;;2.70;;
23378;SDS011;11862;46.070;13.222;2022-11-20T04:24:02;2.50;;;2.30;;
23378;SDS011;11862;46.070;13.222;2022-11-20T04:26:31;2.97;;;2.50;;
23378;SDS011;11862;46.070;13.222;2022-11-20T04:29:00;2.70;;;2.35;;
23378;SDS011;11862;46.070;13.222;2022-11-20T04:31:29;5.85;;;2.70;;
23378;SDS011;11862;46.070;13.222;2022-11-20T04:34:01;3.50;;;2.78;;
23378;SDS011;11862;46.070;13.222;2022-11-20T04:36:28;3.33;;;2.70;;
23378;SDS011;11862;46.070;13.222;2022-11-20T04:38:58;3.67;;;3.10;;
23378;SDS011;11862;46.070;13.222;2022-11-20T04:41:27;4.28;;;3.25;;
23378;SDS011;11862;46.070;13.222;2022-11-20T04:43:55;3.72;;;2.90;;
23378;SDS011;11862;46.070;13.222;2022-11-20T04:46:25;3.47;;;3.10;;
23378;SDS011;11862;46.070;13.222;2022-11-20T04:48:51;4.10;;;3.10;;
23378;SDS011;11862;46.070;13.222;2022-11-20T04:51:17;5.15;;;3.30;;
23378;SDS011;11862;46.070;13.222;2022-11-20T04:53:43;5.07;;;3.28;;
23378;SDS011;11862;46.070;13.222;2022-11-20T04:56:10;3.65;;;3.00;;
23378;SDS011;11862;46.070;13.222;2022-11-20T04:58:40;5.25;;;3.63;;
23378;SDS011;11862;46.070;13.222;2022-11-20T05:01:06;5.93;;;4.30;;
23378;SDS011;11862;46.070;13.222;2022-11-20T05:03:43;4.70;;;3.83;;
23378;SDS011;11862;46.070;13.222;2022-11-20T05:06:13;4.90;;;4.10;;
23378;SDS011;11862;46.070;13.222;2022-11-20T05:08:40;6.57;;;4.68;;
23378;SDS011;11862;46.070;13.222;2022-11-20T05:11:08;6.72;;;4.75;;
23378;SDS011;11862;46.070;13.222;2022-11-20T05:13:38;6.25;;;4.45;;
23378;SDS011;11862;46.070;13.222;2022-11-20T05:16:08;5.40;;;3.53;;
23378;SDS011;11862;46.070;13.222;2022-11-20T05:18:41;3.63;;;3.17;;
23378;SDS011;11862;46.070;13.222;2022-11-20T05:21:08;4.78;;;3.25;;
23378;SDS011;11862;46.070;13.222;2022-11-20T05:23:35;4.55;;;3.60;;
23378;SDS011;11862;46.070;13.222;2022-11-20T05:26:01;4.28;;;3.08;;
23378;SDS011;11862;46.070;13.222;2022-11-20T05:28:28;4.30;;;3.30;;
23378;SDS011;11862;46.070;13.222;2022-11-20T05:30:55;4.78;;;3.50;;
23378;SDS011;11862;46.070;13.222;2022-11-20T05:33:24;4.55;;;3.58;;
23378;SDS011;11862;46.070;13.222;2022-11-20T05:35:52;4.95;;;3.33;;
23378;SDS011;11862;46.070;13.222;2022-11-20T05:38:18;4.15;;;3.10;;
23378;SDS011;11862;46.070;13.222;2022-11-20T05:40:50;2.95;;;2.63;;
23378;SDS011;11862;46.070;13.222;2022-11-20T05:43:15;2.97;;;2.63;;
23378;SDS011;11862;46.070;13.222;2022-11-20T05:45:41;3.30;;;2.97;;
23378;SDS011;11862;46.070;13.222;2022-11-20T05:48:07;3.78;;;3.10;;
23378;SDS011;11862;46.070;13.222;2022-11-20T05:50:33;3.10;;;2.80;;
23378;SDS011;11862;46.070;13.222;2022-11-20T05:52:59;3.97;;;3.58;;
23378;SDS011;11862;46.070;13.222;2022-11-20T05:55:25;5.13;;;3.15;;
23378;SDS011;11862;46.070;13.222;2022-11-20T05:57:52;3.33;;;2.75;;
23378;SDS011;11862;46.070;13.222;2022-11-20T06:00:19;3.95;;;2.65;;
23378;SDS011;11862;46.070;13.222;2022-11-20T06:02:48;3.45;;;2.92;;
23378;SDS011;11862;46.070;13.222;2022-11-20T06:05:14;3.95;;;3.00;;
23378;SDS011;11862;46.070;13.222;2022-11-20T06:07:40;3.20;;;2.90;;
23378;SDS011;11862;46.070;13.222;2022-11-20T06:10:06;4.18;;;3.53;;
23378;SDS011;11862;46.070;13.222;2022-11-20T06:12:32;7.68;;;3.92;;
23378;SDS011;11862;46.070;13.222;2022-11-20T06:14:58;4.93;;;3.40;;
23378;SDS011;11862;46.070;13.222;2022-11-20T06:17:24;4.18;;;3.08;;
23378;SDS011;11862;46.070;13.222;2022-11-20T06:19:50;9.55;;;5.60;;
23378;SDS011;11862;46.070;13.222;2022-11-20T06:22:19;6.72;;;4.63;;
23378;SDS011;11862;46.070;13.222;2022-11-20T06:24:45;7.00;;;5.47;;
23378;SDS011;11862;46.070;13.222;2022-11-20T06:27:11;6.43;;;4.78;;
23378;SDS011;11862;46.070;13.222;2022-11-20T06:29:37;7.63;;;4.75;;
23378;SDS011;11862;46.070;13.222;2022-11-20T06:32:03;4.35;;;3.47;;
23378;SDS011;11862;46.070;13.222;2022-11-20T06:34:28;3.85;;;3.28;;
23378;SDS011;11862;46.070;13.222;2022-11-20T06:36:54;6.30;;;3.00;;
23378;SDS011;11862;46.070;13.222;2022-11-20T06:39:20;3.25;;;2.83;;
23378;SDS011;11862;46.070;13.222;2022-11-20T06:41:46;3.35;;;2.60;;
23378;SDS011;11862;46.070;13.222;2022-11-20T06:44:12;3.78;;;2.22;;
23378;SDS011;11862;46.070;13.222;2022-11-20T06:46:38;3.10;;;2.47;;
23378;SDS011;11862;46.070;13.222;2022-11-20T06:49:03;4.80;;;2.63;;
23378;SDS011;11862;46.070;13.222;2022-11-20T06:51:29;2.63;;;2.30;;
23378;SDS011;11862;46.070;13.222;2022-11-20T06:53:58;2.63;;;2.10;;
23378;SDS011;11862;46.070;13.222;2022-11-20T06:56:26;2.95;;;2.10;;
23378;SDS011;11862;46.070;13.222;2022-11-20T06:58:52;2.65;;;2.38;;
23378;SDS011;11862;46.070;13.222;2022-11-20T07:01:18;2.83;;;2.50;;
23378;SDS011;11862;46.070;13.222;2022-11-20T07:03:44;2.33;;;2.00;;
23378;SDS011;11862;46.070;13.222;2022-11-20T07:06:10;2.53;;;2.25;;
23378;SDS011;11862;46.070;13.222;2022-11-20T07:08:36;4.45;;;2.50;;
23378;SDS011;11862;46.070;13.222;2022-11-20T07:11:05;4.05;;;2.67;;
23378;SDS011;11862;46.070;13.222;2022-11-20T07:13:32;3.67;;;2.95;;
23378;SDS011;11862;46.070;13.222;2022-11-20T07:16:02;2.80;;;2.33;;
23378;SDS011;11862;46.070;13.222;2022-11-20T07:18:32;2.90;;;2.65;;
23378;SDS011;11862;46.070;13.222;2022-11-20T07:21:02;3.80;;;2.72;;
23378;SDS011;11862;46.070;13.222;2022-11-20T07:23:33;3.70;;;2.80;;
23378;SDS011;11862;46.070;13.222;2022-11-20T07:26:05;5.50;;;2.38;;
23378;SDS011;11862;46.070;13.222;2022-11-20T07:28:32;2.90;;;2.60;;
23378;SDS011;11862;46.070;13.222;2022-11-20T07:30:58;2.85;;;2.65;;
23378;SDS011;11862;46.070;13.222;2022-11-20T07:33:24;2.95;;;2.30;;
23378;SDS011;11862;46.070;13.222;2022-11-20T07:35:50;3.63;;;2.45;;
23378;SDS011;11862;46.070;13.222;2022-11-20T07:38:16;4.07;;;2.40;;
23378;SDS011;11862;46.070;13.222;2022-11-20T07:40:42;3.45;;;3.15;;
23378;SDS011;11862;46.070;13.222;2022-11-20T07:43:08;4.05;;;3.03;;
23378;SDS011;11862;46.070;13.222;2022-11-20T07:45:34;3.33;;;2.85;;
23378;SDS011;11862;46.070;13.222;2022-11-20T07:47:59;3.22;;;2.80;;
23378;SDS011;11862;46.070;13.222;2022-11-20T07:50:25;3.60;;;2.58;;
23378;SDS011;11862;46.070;13.222;2022-11-20T07:52:51;2.67;;;2.20;;
23378;SDS011;11862;46.070;13.222;2022-11-20T07:55:17;3.33;;;2.08;;
23378;SDS011;11862;46.070;13.222;2022-11-20T07:57:43;2.92;;;2.20;;
23378;SDS011;11862;46.070;13.222;2022-11-20T08:00:10;2.45;;;2.25;;
23378;SDS011;11862;46.070;13.222;2022-11-20T08:02:37;2.40;;;2.20;;
23378;SDS011;11862;46.070;13.222;2022-11-20T08:05:04;3.78;;;2.40;;
23378;SDS011;11862;46.070;13.222;2022-11-20T08:07:41;2.65;;;2.45;;
23378;SDS011;11862;46.070;13.222;2022-11-20T08:10:08;4.43;;;3.33;;
23378;SDS011;11862;46.070;13.222;2022-11-20T08:12:35;4.20;;;3.10;;
23378;SDS011;11862;46.070;13.222;2022-11-20T08:15:19;3.50;;;3.03;;
23378;SDS011;11862;46.070;13.222;2022-11-20T08:17:45;5.20;;;3.20;;
23378;SDS011;11862;46.070;13.222;2022-11-20T08:20:11;6.47;;;3.92;;
23378;SDS011;11862;46.070;13.222;2022-11-20T08:22:37;5.10;;;3.33;;
23378;SDS011;11862;46.070;13.222;2022-11-20T08:25:03;5.75;;;3.53;;
23378;SDS011;11862;46.070;13.222;2022-11-20T08:27:31;4.57;;;3.05;;
23378;SDS011;11862;46.070;13.222;2022-11-20T08:29:58;4.78;;;3.38;;
23378;SDS011;11862;46.070;13.222;2022-11-20T08:32:23;3.80;;;3.22;;
23378;SDS011;11862;46.070;13.222;2022-11-20T08:34:49;6.75;;;3.67;;
23378;SDS011;11862;46.070;13.222;2022-11-20T08:37:15;5.63;;;3.22;;
23378;SDS011;11862;46.070;13.222;2022-11-20T08:39:41;4.18;;;3.55;;
23378;SDS011;11862;46.070;13.222;2022-11-20T08:42:07;3.78;;;3.33;;
23378;SDS011;11862;46.070;13.222;2022-11-20T08:44:33;3.20;;;2.90;;
23378;SDS011;11862;46.070;13.222;2022-11-20T08:46:59;2.80;;;2.42;;
23378;SDS011;11862;46.070;13.222;2022-11-20T08:49:28;4.68;;;2.75;;
23378;SDS011;11862;46.070;13.222;2022-11-20T08:51:54;3.15;;;2.50;;
23378;SDS011;11862;46.070;13.222;2022-11-20T08:54:20;3.30;;;3.00;;
23378;SDS011;11862;46.070;13.222;2022-11-20T08:56:47;3.47;;;3.17;;
23378;SDS011;11862;46.070;13.222;2022-11-20T08:59:13;5.15;;;4.65;;
23378;SDS011;11862;46.070;13.222;2022-11-20T09:01:39;3.03;;;2.72;;
23378;SDS011;11862;46.070;13.222;2022-11-20T09:04:05;3.97;;;3.25;;
23378;SDS011;11862;46.070;13.222;2022-11-20T09:06:31;3.42;;;3.13;;
23378;SDS011;11862;46.070;13.222;2022-11-20T09:08:56;3.22;;;2.80;;
23378;SDS011;11862;46.070;13.222;2022-11-20T09:11:23;5.15;;;4.10;;
23378;SDS011;11862;46.070;13.222;2022-11-20T09:13:49;4.80;;;3.88;;
23378;SDS011;11862;46.070;13.222;2022-11-20T09:16:14;4.43;;;3.95;;
23378;SDS011;11862;46.070;13.222;2022-11-20T09:18:40;4.00;;;3.58;;
23378;SDS011;11862;46.070;13.222;2022-11-20T09:21:12;3.70;;;2.78;;
23378;SDS011;11862;46.070;13.222;2022-11-20T09:23:39;3.22;;;2.58;;
23378;SDS011;11862;46.070;13.222;2022-11-20T09:26:11;5.50;;;3.78;;
23378;SDS011;11862;46.070;13.222;2022-11-20T09:28:37;6.10;;;3.95;;
23378;SDS011;11862;46.070;13.222;2022-11-20T09:31:07;3.72;;;3.38;;
23378;SDS011;11862;46.070;13.222;2022-11-20T09:33:35;3.33;;;2.87;;
23378;SDS011;11862;46.070;13.222;2022-11-20T09:36:01;3.92;;;2.85;;
23378;SDS011;11862;46.070;13.222;2022-11-20T09:38:27;3.35;;;3.05;;
23378;SDS011;11862;46.070;13.222;2022-11-20T09:40:55;4.40;;;3.22;;
23378;SDS011;11862;46.070;13.222;2022-11-20T09:51:53;3.90;;;3.17;;
23378;SDS011;11862;46.070;13.222;2022-11-20T09:54:31;2.88;;;2.55;;
23378;SDS011;11862;46.070;13.222;2022-11-20T09:57:03;3.13;;;2.40;;
23378;SDS011;11862;46.070;13.222;2022-11-20T09:59:37;2.72;;;1.98;;
23378;SDS011;11862;46.070;13.222;2022-11-20T10:05:05;3.63;;;2.20;;
23378;SDS011;11862;46.070;13.222;2022-11-20T10:07:45;2.22;;;2.03;;
23378;SDS011;11862;46.070;13.222;2022-11-20T10:10:14;4.03;;;2.05;;
23378;SDS011;11862;46.070;13.222;2022-11-20T10:12:54;3.10;;;1.98;;
23378;SDS011;11862;46.070;13.222;2022-11-20T10:18:04;1.80;;;1.60;;
23378;SDS011;11862;46.070;13.222;2022-11-20T10:29:47;1.50;;;1.40;;
23378;SDS011;11862;46.070;13.222;2022-11-20T10:32:28;2.00;;;1.70;;
23378;SDS011;11862;46.070;13.222;2022-11-20T10:37:51;2.75;;;1.80;;
23378;SDS011;11862;46.070;13.222;2022-11-20T10:40:35;1.70;;;1.60;;
23378;SDS011;11862;46.070;13.222;2022-11-20T10:43:13;1.42;;;1.33;;
23378;SDS011;11862;46.070;13.222;2022-11-20T10:45:53;1.70;;;1.52;;
23378;SDS011;11862;46.070;13.222;2022-11-20T10:48:49;1.70;;;1.52;;
23378;SDS011;11862;46.070;13.222;2022-11-20T10:51:21;2.35;;;1.55;;
23378;SDS011;11862;46.070;13.222;2022-11-20T10:54:10;1.63;;;1.50;;
23378;SDS011;11862;46.070;13.222;2022-11-20T10:56:49;1.55;;;1.45;;
23378;SDS011;11862;46.070;13.222;2022-11-20T11:02:19;1.80;;;1.30;;
23378;SDS011;11862;46.070;13.222;2022-11-20T11:04:48;2.63;;;1.67;;
23378;SDS011;11862;46.070;13.222;2022-11-20T11:07:22;3.88;;;2.28;;
23378;SDS011;11862;46.070;13.222;2022-11-20T11:09:53;3.40;;;2.83;;
23378;SDS011;11862;46.070;13.222;2022-11-20T11:12:24;2.25;;;2.05;;
23378;SDS011;11862;46.070;13.222;2022-11-20T11:14:57;1.88;;;1.70;;
23378;SDS011;11862;46.070;13.222;2022-11-20T11:17:27;3.53;;;2.25;;
23378;SDS011;11862;46.070;13.222;2022-11-20T11:20:03;1.90;;;1.70;;
23378;SDS011;11862;46.070;13.222;2022-11-20T11:22:30;3.33;;;2.33;;
23378;SDS011;11862;46.070;13.222;2022-11-20T11:24:58;1.90;;;1.50;;
23378;SDS011;11862;46.070;13.222;2022-11-20T11:27:27;1.20;;;1.02;;
23378;SDS011;11862;46.070;13.222;2022-11-20T11:30:12;1.40;;;1.27;;
23378;SDS011;11862;46.070;13.222;2022-11-20T11:32:40;1.40;;;1.30;;
23378;SDS011;11862;46.070;13.222;2022-11-20T11:35:07;1.38;;;1.23;;
23378;SDS011;11862;46.070;13.222;2022-11-20T11:37:46;1.45;;;1.35;;
23378;SDS011;11862;46.070;13.222;2022-11-20T11:40:13;1.45;;;1.23;;
23378;SDS011;11862;46.070;13.222;2022-11-20T11:42:44;2.38;;;1.50;;
23378;SDS011;11862;46.070;13.222;2022-11-20T11:45:16;1.90;;;1.50;;
23378;SDS011;11862;46.070;13.222;2022-11-20T11:47:46;1.85;;;1.60;;
23378;SDS011;11862;46.070;13.222;2022-11-20T11:50:23;2.50;;;1.38;;
23378;SDS011;11862;46.070;13.222;2022-11-20T11:53:09;2.30;;;1.45;;
23378;SDS011;11862;46.070;13.222;2022-11-20T11:55:46;1.83;;;1.30;;
23378;SDS011;11862;46.070;13.222;2022-11-20T12:00:58;1.20;;;1.10;;
23378;SDS011;11862;46.070;13.222;2022-11-20T12:03:55;1.02;;;1.00;;
23378;SDS011;11862;46.070;13.222;2022-11-20T12:06:38;1.40;;;1.10;;
23378;SDS011;11862;46.070;13.222;2022-11-20T12:09:08;2.22;;;1.20;;
23378;SDS011;11862;46.070;13.222;2022-11-20T12:14:35;1.23;;;1.10;;
23378;SDS011;11862;46.070;13.222;2022-11-20T12:17:03;1.10;;;1.00;;
23378;SDS011;11862;46.070;13.222;2022-11-20T12:19:30;1.27;;;1.02;;
23378;SDS011;11862;46.070;13.222;2022-11-20T12:22:03;0.85;;;0.80;;
23378;SDS011;11862;46.070;13.222;2022-11-20T12:24:57;1.13;;;0.95;;
23378;SDS011;11862;46.070;13.222;2022-11-20T12:30:28;1.88;;;1.00;;
23378;SDS011;11862;46.070;13.222;2022-11-20T12:38:39;1.20;;;1.10;;
23378;SDS011;11862;46.070;13.222;2022-11-20T12:53:11;1.70;;;1.60;;
23378;SDS011;11862;46.070;13.222;2022-11-20T13:07:23;1.52;;;1.42;;
23378;SDS011;11862;46.070;13.222;2022-11-20T13:09:49;2.60;;;1.98;;
23378;SDS011;11862;46.070;13.222;2022-11-20T13:12:22;1.83;;;1.65;;
23378;SDS011;11862;46.070;13.222;2022-11-20T13:15:05;1.92;;;1.73;;
23378;SDS011;11862;46.070;13.222;2022-11-20T13:17:38;1.88;;;1.67;;
23378;SDS011;11862;46.070;13.222;2022-11-20T13:20:12;1.67;;;1.58;;
23378;SDS011;11862;46.070;13.222;2022-11-20T13:22:51;2.13;;;1.85;;
23378;SDS011;11862;46.070;13.222;2022-11-20T13:27:58;2.95;;;2.05;;
23378;SDS011;11862;46.070;13.222;2022-11-20T13:30:54;2.67;;;2.35;;
23378;SDS011;11862;46.070;13.222;2022-11-20T13:36:03;2.78;;;2.40;;
23378;SDS011;11862;46.070;13.222;2022-11-20T13:38:43;3.00;;;2.28;;
23378;SDS011;11862;46.070;13.222;2022-11-20T13:41:23;3.05;;;2.50;;
23378;SDS011;11862;46.070;13.222;2022-11-20T13:46:59;2.25;;;1.95;;
23378;SDS011;11862;46.070;13.222;2022-11-20T13:49:33;1.50;;;1.33;;
23378;SDS011;11862;46.070;13.222;2022-11-20T13:55:07;1.35;;;1.00;;
23378;SDS011;11862;46.070;13.222;2022-11-20T14:05:33;1.08;;;0.88;;
23378;SDS011;11862;46.070;13.222;2022-11-20T14:08:19;1.92;;;0.80;;
23378;SDS011;11862;46.070;13.222;2022-11-20T14:11:06;0.68;;;0.60;;
23378;SDS011;11862;46.070;13.222;2022-11-20T14:13:39;0.80;;;0.80;;
23378;SDS011;11862;46.070;13.222;2022-11-20T14:16:34;1.05;;;0.80;;
23378;SDS011;11862;46.070;13.222;2022-11-20T14:21:45;1.15;;;0.90;;
23378;SDS011;11862;46.070;13.222;2022-11-20T14:24:13;1.08;;;0.73;;
23378;SDS011;11862;46.070;13.222;2022-11-20T14:26:44;1.08;;;0.90;;
23378;SDS011;11862;46.070;13.222;2022-11-20T14:29:14;2.30;;;1.20;;
23378;SDS011;11862;46.070;13.222;2022-11-20T14:31:44;1.27;;;0.98;;
23378;SDS011;11862;46.070;13.222;2022-11-20T14:34:15;1.08;;;0.95;;
23378;SDS011;11862;46.070;13.222;2022-11-20T14:37:00;0.82;;;0.80;;
23378;SDS011;11862;46.070;13.222;2022-11-20T14:39:33;1.13;;;1.02;;
23378;SDS011;11862;46.070;13.222;2022-11-20T14:42:01;1.40;;;1.30;;
23378;SDS011;11862;46.070;13.222;2022-11-20T14:44:33;0.95;;;0.90;;
23378;SDS011;11862;46.070;13.222;2022-11-20T14:47:03;1.02;;;0.93;;
23378;SDS011;11862;46.070;13.222;2022-11-20T14:49:30;1.55;;;1.15;;
23378;SDS011;11862;46.070;13.222;2022-11-20T14:52:01;1.00;;;1.00;;
23378;SDS011;11862;46.070;13.222;2022-11-20T14:54:28;0.80;;;0.80;;
23378;SDS011;11862;46.070;13.222;2022-11-20T14:56:59;1.05;;;0.98;;
23378;SDS011;11862;46.070;13.222;2022-11-20T14:59:28;1.10;;;1.00;;
23378;SDS011;11862;46.070;13.222;2022-11-20T15:02:16;1.48;;;0.93;;
23378;SDS011;11862;46.070;13.222;2022-11-20T15:04:47;0.77;;;0.77;;
23378;SDS011;11862;46.070;13.222;2022-11-20T15:07:26;3.00;;;1.05;;
23378;SDS011;11862;46.070;13.222;2022-11-20T15:10:27;1.45;;;1.13;;
23378;SDS011;11862;46.070;13.222;2022-11-20T15:15:17;1.65;;;1.13;;
23378;SDS011;11862;46.070;13.222;2022-11-20T15:18:00;1.25;;;1.15;;
23378;SDS011;11862;46.070;13.222;2022-11-20T15:20:28;1.05;;;1.02;;
23378;SDS011;11862;46.070;13.222;2022-11-20T15:22:58;1.20;;;1.10;;
23378;SDS011;11862;46.070;13.222;2022-11-20T15:25:24;2.53;;;1.08;;
23378;SDS011;11862;46.070;13.222;2022-11-20T15:27:52;1.02;;;1.00;;
23378;SDS011;11862;46.070;13.222;2022-11-20T15:30:21;1.20;;;1.10;;
23378;SDS011;11862;46.070;13.222;2022-11-20T15:32:47;1.15;;;0.85;;
23378;SDS011;11862;46.070;13.222;2022-11-20T15:35:14;1.27;;;1.05;;
23378;SDS011;11862;46.070;13.222;2022-11-20T15:37:40;1.23;;;1.13;;
23378;SDS011;11862;46.070;13.222;2022-11-20T15:40:07;0.90;;;0.80;;
23378;SDS011;11862;46.070;13.222;2022-11-20T15:42:36;2.25;;;1.17;;
23378;SDS011;11862;46.070;13.222;2022-11-20T15:45:02;1.10;;;1.00;;
23378;SDS011;11862;46.070;13.222;2022-11-20T15:47:29;1.17;;;0.95;;
23378;SDS011;11862;46.070;13.222;2022-11-20T15:49:57;1.20;;;1.10;;
23378;SDS011;11862;46.070;13.222;2022-11-20T15:52:23;1.38;;;1.17;;
23378;SDS011;11862;46.070;13.222;2022-11-20T15:54:52;1.48;;;1.35;;
23378;SDS011;11862;46.070;13.222;2022-11-20T15:57:17;1.48;;;1.38;;
23378;SDS011;11862;46.070;13.222;2022-11-20T15:59:44;1.30;;;1.20;;
23378;SDS011;11862;46.070;13.222;2022-11-20T16:02:12;2.05;;;1.30;;
23378;SDS011;11862;46.070;13.222;2022-11-20T16:04:40;1.77;;;1.60;;
23378;SDS011;11862;46.070;13.222;2022-11-20T16:07:06;2.00;;;1.67;;
23378;SDS011;11862;46.070;13.222;2022-11-20T16:09:35;1.65;;;1.48;;
23378;SDS011;11862;46.070;13.222;2022-11-20T16:12:01;1.75;;;1.38;;
23378;SDS011;11862;46.070;13.222;2022-11-20T16:14:27;1.75;;;1.60;;
23378;SDS011;11862;46.070;13.222;2022-11-20T16:17:12;2.35;;;1.83;;
23378;SDS011;11862;46.070;13.222;2022-11-20T16:19:38;1.85;;;1.67;;
23378;SDS011;11862;46.070;13.222;2022-11-20T16:22:04;1.30;;;1.20;;
23378;SDS011;11862;46.070;13.222;2022-11-20T16:24:30;1.70;;;1.60;;
23378;SDS011;11862;46.070;13.222;2022-11-20T16:26:56;2.58;;;1.67;;